sensor_id;sensor_type;location;lat;lon;timestamp;P1;durP1;ratioP1;P2;durP2;ratioP2
15635;SDS011;7917;50.818;6.972;2023-06-26T00:01:37;6.45;;;5.82;;
15635;SDS011;7917;50.818;6.972;2023-06-26T00:04:08;7.10;;;6.40;;
15635;SDS011;7917;50.818;6.972;2023-06-26T00:06:39;7.05;;;6.28;;
15635;SDS011;7917;50.818;6.972;2023-06-26T00:09:07;7.40;;;5.80;;
15635;SDS011;7917;50.818;6.972;2023-06-26T00:11:33;8.27;;;6.32;;
15635;SDS011;7917;50.818;6.972;2023-06-26T00:14:03;7.25;;;6.43;;
15635;SDS011;7917;50.818;6.972;2023-06-26T00:16:30;9.10;;;6.20;;
15635;SDS011;7917;50.818;6.972;2023-06-26T00:18:57;6.93;;;6.25;;
15635;SDS011;7917;50.818;6.972;2023-06-26T00:21:24;5.95;;;5.38;;
15635;SDS011;7917;50.818;6.972;2023-06-26T00:23:52;7.20;;;6.03;;
15635;SDS011;7917;50.818;6.972;2023-06-26T00:26:19;6.85;;;6.22;;
15635;SDS011;7917;50.818;6.972;2023-06-26T00:28:46;8.75;;;6.30;;
15635;SDS011;7917;50.818;6.972;2023-06-26T00:31:13;11.82;;;6.57;;
15635;SDS011;7917;50.818;6.972;2023-06-26T00:33:40;6.50;;;5.88;;
15635;SDS011;7917;50.818;6.972;2023-06-26T00:36:10;6.65;;;5.95;;
15635;SDS011;7917;50.818;6.972;2023-06-26T00:38:36;7.05;;;6.35;;
15635;SDS011;7917;50.818;6.972;2023-06-26T00:41:03;7.18;;;6.47;;
15635;SDS011;7917;50.818;6.972;2023-06-26T00:43:40;8.73;;;6.50;;
15635;SDS011;7917;50.818;6.972;2023-06-26T00:46:08;7.22;;;6.35;;
15635;SDS011;7917;50.818;6.972;2023-06-26T00:48:37;9.65;;;6.80;;
15635;SDS011;7917;50.818;6.972;2023-06-26T00:51:05;7.90;;;6.63;;
15635;SDS011;7917;50.818;6.972;2023-06-26T00:53:35;6.82;;;6.20;;
15635;SDS011;7917;50.818;6.972;2023-06-26T00:56:02;7.95;;;7.15;;
15635;SDS011;7917;50.818;6.972;2023-06-26T00:58:29;8.10;;;6.60;;
15635;SDS011;7917;50.818;6.972;2023-06-26T01:00:56;6.93;;;6.22;;
15635;SDS011;7917;50.818;6.972;2023-06-26T01:03:23;7.68;;;6.38;;
15635;SDS011;7917;50.818;6.972;2023-06-26T01:05:51;7.97;;;6.60;;
15635;SDS011;7917;50.818;6.972;2023-06-26T01:08:26;7.25;;;6.30;;
15635;SDS011;7917;50.818;6.972;2023-06-26T01:10:53;7.28;;;6.53;;
15635;SDS011;7917;50.818;6.972;2023-06-26T01:13:20;7.00;;;6.30;;
15635;SDS011;7917;50.818;6.972;2023-06-26T01:15:48;7.05;;;6.32;;
15635;SDS011;7917;50.818;6.972;2023-06-26T01:18:15;9.80;;;6.72;;
15635;SDS011;7917;50.818;6.972;2023-06-26T01:20:42;6.55;;;5.85;;
15635;SDS011;7917;50.818;6.972;2023-06-26T01:23:14;10.07;;;6.45;;
15635;SDS011;7917;50.818;6.972;2023-06-26T01:25:50;6.45;;;5.85;;
15635;SDS011;7917;50.818;6.972;2023-06-26T01:28:27;9.43;;;6.25;;
15635;SDS011;7917;50.818;6.972;2023-06-26T01:30:54;8.05;;;5.75;;
15635;SDS011;7917;50.818;6.972;2023-06-26T01:33:22;6.80;;;6.10;;
15635;SDS011;7917;50.818;6.972;2023-06-26T01:35:48;7.45;;;6.35;;
15635;SDS011;7917;50.818;6.972;2023-06-26T01:38:16;6.85;;;6.00;;
15635;SDS011;7917;50.818;6.972;2023-06-26T01:40:43;10.40;;;6.15;;
15635;SDS011;7917;50.818;6.972;2023-06-26T01:43:11;8.85;;;5.50;;
15635;SDS011;7917;50.818;6.972;2023-06-26T01:45:45;9.68;;;6.47;;
15635;SDS011;7917;50.818;6.972;2023-06-26T01:48:14;6.88;;;6.20;;
15635;SDS011;7917;50.818;6.972;2023-06-26T01:50:42;7.50;;;6.28;;
15635;SDS011;7917;50.818;6.972;2023-06-26T01:53:11;7.10;;;6.40;;
15635;SDS011;7917;50.818;6.972;2023-06-26T01:55:43;8.38;;;6.82;;
15635;SDS011;7917;50.818;6.972;2023-06-26T01:58:13;8.73;;;6.15;;
15635;SDS011;7917;50.818;6.972;2023-06-26T02:00:42;7.53;;;6.20;;
15635;SDS011;7917;50.818;6.972;2023-06-26T02:03:10;6.82;;;6.13;;
15635;SDS011;7917;50.818;6.972;2023-06-26T02:05:36;6.95;;;5.47;;
15635;SDS011;7917;50.818;6.972;2023-06-26T02:08:03;7.80;;;5.95;;
15635;SDS011;7917;50.818;6.972;2023-06-26T02:10:37;7.32;;;5.90;;
15635;SDS011;7917;50.818;6.972;2023-06-26T02:13:04;6.97;;;6.28;;
15635;SDS011;7917;50.818;6.972;2023-06-26T02:15:34;8.73;;;6.63;;
15635;SDS011;7917;50.818;6.972;2023-06-26T02:18:01;8.38;;;6.45;;
15635;SDS011;7917;50.818;6.972;2023-06-26T02:20:29;7.32;;;5.60;;
15635;SDS011;7917;50.818;6.972;2023-06-26T02:22:55;8.07;;;6.30;;
15635;SDS011;7917;50.818;6.972;2023-06-26T02:25:22;7.43;;;6.18;;
15635;SDS011;7917;50.818;6.972;2023-06-26T02:27:49;8.27;;;6.43;;
15635;SDS011;7917;50.818;6.972;2023-06-26T02:30:15;7.70;;;6.68;;
15635;SDS011;7917;50.818;6.972;2023-06-26T02:32:42;7.15;;;6.32;;
15635;SDS011;7917;50.818;6.972;2023-06-26T02:35:09;7.78;;;6.20;;
15635;SDS011;7917;50.818;6.972;2023-06-26T02:37:36;7.28;;;6.22;;
15635;SDS011;7917;50.818;6.972;2023-06-26T02:40:03;8.90;;;6.97;;
15635;SDS011;7917;50.818;6.972;2023-06-26T02:42:31;7.88;;;6.68;;
15635;SDS011;7917;50.818;6.972;2023-06-26T02:44:57;8.68;;;6.88;;
15635;SDS011;7917;50.818;6.972;2023-06-26T02:47:24;8.25;;;6.60;;
15635;SDS011;7917;50.818;6.972;2023-06-26T02:49:51;8.68;;;7.25;;
15635;SDS011;7917;50.818;6.972;2023-06-26T02:52:21;8.30;;;6.55;;
15635;SDS011;7917;50.818;6.972;2023-06-26T02:54:49;9.27;;;6.95;;
15635;SDS011;7917;50.818;6.972;2023-06-26T02:57:16;7.00;;;6.22;;
15635;SDS011;7917;50.818;6.972;2023-06-26T02:59:43;7.57;;;6.68;;
15635;SDS011;7917;50.818;6.972;2023-06-26T03:02:09;11.23;;;7.82;;
15635;SDS011;7917;50.818;6.972;2023-06-26T03:04:36;9.77;;;7.28;;
15635;SDS011;7917;50.818;6.972;2023-06-26T03:07:03;8.30;;;7.20;;
15635;SDS011;7917;50.818;6.972;2023-06-26T03:09:30;7.35;;;6.63;;
15635;SDS011;7917;50.818;6.972;2023-06-26T03:12:00;8.40;;;7.50;;
15635;SDS011;7917;50.818;6.972;2023-06-26T03:14:30;7.80;;;6.95;;
15635;SDS011;7917;50.818;6.972;2023-06-26T03:16:57;8.70;;;7.28;;
15635;SDS011;7917;50.818;6.972;2023-06-26T03:19:27;7.40;;;6.65;;
15635;SDS011;7917;50.818;6.972;2023-06-26T03:21:56;7.90;;;6.88;;
15635;SDS011;7917;50.818;6.972;2023-06-26T03:24:23;8.73;;;6.82;;
15635;SDS011;7917;50.818;6.972;2023-06-26T03:26:50;8.02;;;7.03;;
15635;SDS011;7917;50.818;6.972;2023-06-26T03:29:18;8.02;;;7.15;;
15635;SDS011;7917;50.818;6.972;2023-06-26T03:31:44;7.72;;;6.75;;
15635;SDS011;7917;50.818;6.972;2023-06-26T03:34:11;9.43;;;7.15;;
15635;SDS011;7917;50.818;6.972;2023-06-26T03:36:38;9.23;;;7.15;;
15635;SDS011;7917;50.818;6.972;2023-06-26T03:39:06;8.38;;;7.30;;
15635;SDS011;7917;50.818;6.972;2023-06-26T03:41:33;11.95;;;6.55;;
15635;SDS011;7917;50.818;6.972;2023-06-26T03:43:59;7.80;;;7.00;;
15635;SDS011;7917;50.818;6.972;2023-06-26T03:46:28;7.63;;;6.72;;
15635;SDS011;7917;50.818;6.972;2023-06-26T03:48:55;7.70;;;6.78;;
15635;SDS011;7917;50.818;6.972;2023-06-26T03:51:22;7.88;;;6.75;;
15635;SDS011;7917;50.818;6.972;2023-06-26T03:53:48;7.75;;;6.85;;
15635;SDS011;7917;50.818;6.972;2023-06-26T03:56:18;7.57;;;6.53;;
15635;SDS011;7917;50.818;6.972;2023-06-26T03:58:45;7.00;;;6.30;;
15635;SDS011;7917;50.818;6.972;2023-06-26T04:01:12;9.27;;;7.28;;
15635;SDS011;7917;50.818;6.972;2023-06-26T04:03:42;8.43;;;7.13;;
15635;SDS011;7917;50.818;6.972;2023-06-26T04:06:08;7.38;;;6.63;;
15635;SDS011;7917;50.818;6.972;2023-06-26T04:08:35;9.85;;;7.00;;
15635;SDS011;7917;50.818;6.972;2023-06-26T04:11:02;8.10;;;7.30;;
15635;SDS011;7917;50.818;6.972;2023-06-26T04:13:29;9.57;;;7.63;;
15635;SDS011;7917;50.818;6.972;2023-06-26T04:15:56;12.27;;;7.78;;
15635;SDS011;7917;50.818;6.972;2023-06-26T04:18:25;12.38;;;8.18;;
15635;SDS011;7917;50.818;6.972;2023-06-26T04:21:05;9.48;;;7.82;;
15635;SDS011;7917;50.818;6.972;2023-06-26T04:23:33;8.40;;;7.53;;
15635;SDS011;7917;50.818;6.972;2023-06-26T04:26:00;11.32;;;7.07;;
15635;SDS011;7917;50.818;6.972;2023-06-26T04:28:28;11.20;;;7.20;;
15635;SDS011;7917;50.818;6.972;2023-06-26T04:30:55;13.63;;;7.10;;
15635;SDS011;7917;50.818;6.972;2023-06-26T04:33:21;10.55;;;7.35;;
15635;SDS011;7917;50.818;6.972;2023-06-26T04:35:48;19.05;;;7.20;;
15635;SDS011;7917;50.818;6.972;2023-06-26T04:38:16;15.48;;;7.35;;
15635;SDS011;7917;50.818;6.972;2023-06-26T04:40:46;9.13;;;7.32;;
15635;SDS011;7917;50.818;6.972;2023-06-26T04:43:13;13.43;;;6.82;;
15635;SDS011;7917;50.818;6.972;2023-06-26T04:45:39;8.52;;;6.35;;
15635;SDS011;7917;50.818;6.972;2023-06-26T04:48:06;10.23;;;6.43;;
15635;SDS011;7917;50.818;6.972;2023-06-26T04:50:34;8.38;;;6.30;;
15635;SDS011;7917;50.818;6.972;2023-06-26T04:53:00;8.40;;;6.70;;
15635;SDS011;7917;50.818;6.972;2023-06-26T04:55:28;10.63;;;6.40;;
15635;SDS011;7917;50.818;6.972;2023-06-26T04:57:55;9.57;;;6.50;;
15635;SDS011;7917;50.818;6.972;2023-06-26T05:00:22;8.18;;;6.25;;
15635;SDS011;7917;50.818;6.972;2023-06-26T05:02:50;8.15;;;6.05;;
15635;SDS011;7917;50.818;6.972;2023-06-26T05:05:24;8.90;;;6.35;;
15635;SDS011;7917;50.818;6.972;2023-06-26T05:07:52;9.38;;;6.40;;
15635;SDS011;7917;50.818;6.972;2023-06-26T05:10:19;11.65;;;7.10;;
15635;SDS011;7917;50.818;6.972;2023-06-26T05:12:47;9.05;;;6.25;;
15635;SDS011;7917;50.818;6.972;2023-06-26T05:15:14;8.40;;;5.47;;
15635;SDS011;7917;50.818;6.972;2023-06-26T05:17:40;7.50;;;6.15;;
15635;SDS011;7917;50.818;6.972;2023-06-26T05:20:08;8.00;;;5.50;;
15635;SDS011;7917;50.818;6.972;2023-06-26T05:22:35;8.57;;;5.72;;
15635;SDS011;7917;50.818;6.972;2023-06-26T05:25:05;9.00;;;5.72;;
15635;SDS011;7917;50.818;6.972;2023-06-26T05:27:35;9.35;;;5.47;;
15635;SDS011;7917;50.818;6.972;2023-06-26T05:30:04;8.02;;;5.63;;
15635;SDS011;7917;50.818;6.972;2023-06-26T05:32:32;10.55;;;5.28;;
15635;SDS011;7917;50.818;6.972;2023-06-26T05:35:02;7.90;;;4.93;;
15635;SDS011;7917;50.818;6.972;2023-06-26T05:37:33;7.05;;;5.22;;
15635;SDS011;7917;50.818;6.972;2023-06-26T05:40:01;11.40;;;5.50;;
15635;SDS011;7917;50.818;6.972;2023-06-26T05:42:29;9.90;;;5.38;;
15635;SDS011;7917;50.818;6.972;2023-06-26T05:44:56;5.68;;;5.10;;
15635;SDS011;7917;50.818;6.972;2023-06-26T05:47:24;6.30;;;5.32;;
15635;SDS011;7917;50.818;6.972;2023-06-26T05:49:52;5.95;;;4.90;;
15635;SDS011;7917;50.818;6.972;2023-06-26T05:52:20;9.93;;;4.57;;
15635;SDS011;7917;50.818;6.972;2023-06-26T05:54:48;7.28;;;5.10;;
15635;SDS011;7917;50.818;6.972;2023-06-26T05:57:16;9.63;;;5.18;;
15635;SDS011;7917;50.818;6.972;2023-06-26T05:59:47;10.57;;;4.97;;
15635;SDS011;7917;50.818;6.972;2023-06-26T06:02:15;9.10;;;4.78;;
15635;SDS011;7917;50.818;6.972;2023-06-26T06:04:43;7.22;;;4.80;;
15635;SDS011;7917;50.818;6.972;2023-06-26T06:07:11;8.20;;;4.78;;
15635;SDS011;7917;50.818;6.972;2023-06-26T06:09:38;6.60;;;5.43;;
15635;SDS011;7917;50.818;6.972;2023-06-26T06:12:08;7.63;;;4.80;;
15635;SDS011;7917;50.818;6.972;2023-06-26T06:14:36;8.18;;;5.22;;
15635;SDS011;7917;50.818;6.972;2023-06-26T06:17:03;7.60;;;4.53;;
15635;SDS011;7917;50.818;6.972;2023-06-26T06:19:33;9.68;;;5.18;;
15635;SDS011;7917;50.818;6.972;2023-06-26T06:22:02;10.10;;;5.50;;
15635;SDS011;7917;50.818;6.972;2023-06-26T06:24:32;12.10;;;5.07;;
15635;SDS011;7917;50.818;6.972;2023-06-26T06:27:00;10.05;;;5.18;;
15635;SDS011;7917;50.818;6.972;2023-06-26T06:29:27;11.40;;;4.72;;
15635;SDS011;7917;50.818;6.972;2023-06-26T06:31:54;7.95;;;5.03;;
15635;SDS011;7917;50.818;6.972;2023-06-26T06:34:22;7.65;;;5.35;;
15635;SDS011;7917;50.818;6.972;2023-06-26T06:36:55;7.95;;;4.35;;
15635;SDS011;7917;50.818;6.972;2023-06-26T06:39:23;10.27;;;5.03;;
15635;SDS011;7917;50.818;6.972;2023-06-26T06:41:50;10.18;;;5.13;;
15635;SDS011;7917;50.818;6.972;2023-06-26T06:44:18;14.55;;;5.10;;
15635;SDS011;7917;50.818;6.972;2023-06-26T06:46:45;8.20;;;4.32;;
15635;SDS011;7917;50.818;6.972;2023-06-26T06:49:12;8.48;;;4.32;;
15635;SDS011;7917;50.818;6.972;2023-06-26T06:51:40;13.07;;;4.55;;
15635;SDS011;7917;50.818;6.972;2023-06-26T06:54:07;7.20;;;5.07;;
15635;SDS011;7917;50.818;6.972;2023-06-26T06:56:35;10.65;;;4.88;;
15635;SDS011;7917;50.818;6.972;2023-06-26T06:59:03;6.95;;;4.10;;
15635;SDS011;7917;50.818;6.972;2023-06-26T07:01:30;10.52;;;4.85;;
15635;SDS011;7917;50.818;6.972;2023-06-26T07:04:00;10.18;;;4.28;;
15635;SDS011;7917;50.818;6.972;2023-06-26T07:06:29;15.75;;;4.97;;
15635;SDS011;7917;50.818;6.972;2023-06-26T07:08:56;10.35;;;4.22;;
15635;SDS011;7917;50.818;6.972;2023-06-26T07:11:23;9.23;;;4.82;;
15635;SDS011;7917;50.818;6.972;2023-06-26T07:13:51;18.40;;;4.70;;
15635;SDS011;7917;50.818;6.972;2023-06-26T07:16:18;13.73;;;4.47;;
15635;SDS011;7917;50.818;6.972;2023-06-26T07:18:46;8.35;;;4.75;;
15635;SDS011;7917;50.818;6.972;2023-06-26T07:21:17;9.20;;;4.85;;
15635;SDS011;7917;50.818;6.972;2023-06-26T07:23:44;15.13;;;4.78;;
15635;SDS011;7917;50.818;6.972;2023-06-26T07:26:13;10.90;;;4.63;;
15635;SDS011;7917;50.818;6.972;2023-06-26T07:28:41;11.70;;;4.95;;
15635;SDS011;7917;50.818;6.972;2023-06-26T07:31:09;13.15;;;4.97;;
15635;SDS011;7917;50.818;6.972;2023-06-26T07:33:36;10.60;;;5.13;;
15635;SDS011;7917;50.818;6.972;2023-06-26T07:36:04;16.23;;;5.43;;
15635;SDS011;7917;50.818;6.972;2023-06-26T07:38:31;8.70;;;5.10;;
15635;SDS011;7917;50.818;6.972;2023-06-26T07:40:58;10.18;;;5.57;;
15635;SDS011;7917;50.818;6.972;2023-06-26T07:43:25;14.77;;;5.03;;
15635;SDS011;7917;50.818;6.972;2023-06-26T07:45:53;14.43;;;5.50;;
15635;SDS011;7917;50.818;6.972;2023-06-26T07:48:24;25.38;;;5.90;;
15635;SDS011;7917;50.818;6.972;2023-06-26T07:50:52;13.88;;;5.80;;
15635;SDS011;7917;50.818;6.972;2023-06-26T07:53:19;11.77;;;5.30;;
15635;SDS011;7917;50.818;6.972;2023-06-26T07:55:47;11.48;;;5.60;;
15635;SDS011;7917;50.818;6.972;2023-06-26T07:58:14;11.40;;;5.70;;
15635;SDS011;7917;50.818;6.972;2023-06-26T08:00:41;14.02;;;5.53;;
15635;SDS011;7917;50.818;6.972;2023-06-26T08:03:09;10.20;;;5.22;;
15635;SDS011;7917;50.818;6.972;2023-06-26T08:05:37;9.18;;;5.50;;
15635;SDS011;7917;50.818;6.972;2023-06-26T08:08:04;18.20;;;5.78;;
15635;SDS011;7917;50.818;6.972;2023-06-26T08:10:32;14.40;;;5.30;;
15635;SDS011;7917;50.818;6.972;2023-06-26T08:13:00;12.00;;;5.20;;
15635;SDS011;7917;50.818;6.972;2023-06-26T08:15:30;11.45;;;5.30;;
15635;SDS011;7917;50.818;6.972;2023-06-26T08:17:58;9.90;;;5.40;;
15635;SDS011;7917;50.818;6.972;2023-06-26T08:20:25;8.38;;;5.00;;
15635;SDS011;7917;50.818;6.972;2023-06-26T08:22:54;9.65;;;5.10;;
15635;SDS011;7917;50.818;6.972;2023-06-26T08:25:21;13.18;;;5.70;;
15635;SDS011;7917;50.818;6.972;2023-06-26T08:27:50;14.95;;;5.03;;
15635;SDS011;7917;50.818;6.972;2023-06-26T08:30:19;11.80;;;5.13;;
15635;SDS011;7917;50.818;6.972;2023-06-26T08:32:47;13.48;;;4.93;;
15635;SDS011;7917;50.818;6.972;2023-06-26T08:35:17;9.07;;;5.03;;
15635;SDS011;7917;50.818;6.972;2023-06-26T08:37:44;8.27;;;4.60;;
15635;SDS011;7917;50.818;6.972;2023-06-26T08:40:12;11.00;;;4.93;;
15635;SDS011;7917;50.818;6.972;2023-06-26T08:43:02;6.45;;;3.90;;
15635;SDS011;7917;50.818;6.972;2023-06-26T08:45:29;8.73;;;4.18;;
15635;SDS011;7917;50.818;6.972;2023-06-26T08:47:57;11.50;;;4.93;;
15635;SDS011;7917;50.818;6.972;2023-06-26T08:50:27;7.95;;;4.15;;
15635;SDS011;7917;50.818;6.972;2023-06-26T08:53:01;9.40;;;3.65;;
15635;SDS011;7917;50.818;6.972;2023-06-26T08:55:38;12.32;;;4.32;;
15635;SDS011;7917;50.818;6.972;2023-06-26T08:58:11;10.52;;;4.00;;
15635;SDS011;7917;50.818;6.972;2023-06-26T09:00:39;11.05;;;4.13;;
15635;SDS011;7917;50.818;6.972;2023-06-26T09:03:06;20.30;;;4.80;;
15635;SDS011;7917;50.818;6.972;2023-06-26T09:05:35;9.52;;;4.07;;
15635;SDS011;7917;50.818;6.972;2023-06-26T09:08:02;15.20;;;4.65;;
15635;SDS011;7917;50.818;6.972;2023-06-26T09:10:31;10.23;;;4.00;;
15635;SDS011;7917;50.818;6.972;2023-06-26T09:12:59;8.25;;;4.45;;
15635;SDS011;7917;50.818;6.972;2023-06-26T09:15:27;9.63;;;4.70;;
15635;SDS011;7917;50.818;6.972;2023-06-26T09:18:04;11.85;;;3.95;;
15635;SDS011;7917;50.818;6.972;2023-06-26T09:20:31;12.32;;;4.07;;
15635;SDS011;7917;50.818;6.972;2023-06-26T09:22:59;12.40;;;4.53;;
15635;SDS011;7917;50.818;6.972;2023-06-26T09:25:27;10.40;;;4.47;;
15635;SDS011;7917;50.818;6.972;2023-06-26T09:27:54;8.98;;;4.25;;
15635;SDS011;7917;50.818;6.972;2023-06-26T09:30:23;8.00;;;3.88;;
15635;SDS011;7917;50.818;6.972;2023-06-26T09:32:51;9.57;;;3.72;;
15635;SDS011;7917;50.818;6.972;2023-06-26T09:35:19;6.80;;;3.35;;
15635;SDS011;7917;50.818;6.972;2023-06-26T09:37:47;9.73;;;3.75;;
15635;SDS011;7917;50.818;6.972;2023-06-26T09:40:16;8.77;;;3.83;;
15635;SDS011;7917;50.818;6.972;2023-06-26T09:42:43;9.57;;;4.63;;
15635;SDS011;7917;50.818;6.972;2023-06-26T09:45:17;7.38;;;3.65;;
15635;SDS011;7917;50.818;6.972;2023-06-26T09:47:46;8.98;;;3.25;;
15635;SDS011;7917;50.818;6.972;2023-06-26T09:50:23;7.20;;;3.13;;
15635;SDS011;7917;50.818;6.972;2023-06-26T09:52:55;11.13;;;3.60;;
15635;SDS011;7917;50.818;6.972;2023-06-26T09:55:23;10.05;;;3.03;;
15635;SDS011;7917;50.818;6.972;2023-06-26T09:57:51;10.00;;;3.55;;
15635;SDS011;7917;50.818;6.972;2023-06-26T10:00:21;7.18;;;3.55;;
15635;SDS011;7917;50.818;6.972;2023-06-26T10:02:49;12.77;;;4.00;;
15635;SDS011;7917;50.818;6.972;2023-06-26T10:05:17;7.07;;;2.95;;
15635;SDS011;7917;50.818;6.972;2023-06-26T10:07:45;8.77;;;3.65;;
15635;SDS011;7917;50.818;6.972;2023-06-26T10:10:13;11.40;;;3.00;;
15635;SDS011;7917;50.818;6.972;2023-06-26T10:12:42;9.05;;;3.40;;
15635;SDS011;7917;50.818;6.972;2023-06-26T10:15:13;10.95;;;3.47;;
15635;SDS011;7917;50.818;6.972;2023-06-26T10:17:42;16.00;;;3.50;;
15635;SDS011;7917;50.818;6.972;2023-06-26T10:20:12;9.65;;;3.80;;
15635;SDS011;7917;50.818;6.972;2023-06-26T10:22:41;6.15;;;3.10;;
15635;SDS011;7917;50.818;6.972;2023-06-26T10:25:11;9.60;;;3.35;;
15635;SDS011;7917;50.818;6.972;2023-06-26T10:27:43;5.15;;;2.70;;
15635;SDS011;7917;50.818;6.972;2023-06-26T10:30:17;12.45;;;2.97;;
15635;SDS011;7917;50.818;6.972;2023-06-26T10:32:48;5.65;;;2.45;;
15635;SDS011;7917;50.818;6.972;2023-06-26T10:35:17;10.95;;;2.50;;
15635;SDS011;7917;50.818;6.972;2023-06-26T10:37:45;5.32;;;2.50;;
15635;SDS011;7917;50.818;6.972;2023-06-26T10:40:14;6.22;;;2.63;;
15635;SDS011;7917;50.818;6.972;2023-06-26T10:42:47;6.63;;;2.85;;
15635;SDS011;7917;50.818;6.972;2023-06-26T10:45:15;5.88;;;2.85;;
15635;SDS011;7917;50.818;6.972;2023-06-26T10:47:45;8.50;;;2.58;;
15635;SDS011;7917;50.818;6.972;2023-06-26T10:50:17;8.07;;;2.67;;
15635;SDS011;7917;50.818;6.972;2023-06-26T10:52:46;11.07;;;2.40;;
15635;SDS011;7917;50.818;6.972;2023-06-26T10:55:34;7.88;;;2.42;;
15635;SDS011;7917;50.818;6.972;2023-06-26T10:58:02;7.72;;;2.80;;
15635;SDS011;7917;50.818;6.972;2023-06-26T11:00:29;6.15;;;2.90;;
15635;SDS011;7917;50.818;6.972;2023-06-26T11:16:42;7.20;;;2.47;;
15635;SDS011;7917;50.818;6.972;2023-06-26T11:19:09;9.38;;;2.53;;
15635;SDS011;7917;50.818;6.972;2023-06-26T11:21:36;8.45;;;2.30;;
15635;SDS011;7917;50.818;6.972;2023-06-26T11:24:04;7.18;;;2.22;;
15635;SDS011;7917;50.818;6.972;2023-06-26T11:26:34;5.93;;;2.42;;
15635;SDS011;7917;50.818;6.972;2023-06-26T11:29:05;8.05;;;1.98;;
15635;SDS011;7917;50.818;6.972;2023-06-26T11:31:32;6.88;;;1.85;;
15635;SDS011;7917;50.818;6.972;2023-06-26T11:34:01;4.78;;;2.25;;
15635;SDS011;7917;50.818;6.972;2023-06-26T11:36:30;6.20;;;2.25;;
15635;SDS011;7917;50.818;6.972;2023-06-26T11:38:59;11.10;;;2.42;;
15635;SDS011;7917;50.818;6.972;2023-06-26T11:41:29;7.30;;;2.45;;
15635;SDS011;7917;50.818;6.972;2023-06-26T11:43:59;9.55;;;2.20;;
15635;SDS011;7917;50.818;6.972;2023-06-26T11:46:27;8.30;;;2.22;;
15635;SDS011;7917;50.818;6.972;2023-06-26T11:48:54;5.75;;;2.17;;
15635;SDS011;7917;50.818;6.972;2023-06-26T11:51:22;11.65;;;2.20;;
15635;SDS011;7917;50.818;6.972;2023-06-26T11:53:49;4.95;;;1.95;;
15635;SDS011;7917;50.818;6.972;2023-06-26T11:56:16;7.35;;;2.05;;
15635;SDS011;7917;50.818;6.972;2023-06-26T11:58:56;4.57;;;1.77;;
15635;SDS011;7917;50.818;6.972;2023-06-26T12:01:24;4.60;;;2.30;;
15635;SDS011;7917;50.818;6.972;2023-06-26T12:03:53;4.30;;;2.10;;
15635;SDS011;7917;50.818;6.972;2023-06-26T12:06:27;6.72;;;1.90;;
15635;SDS011;7917;50.818;6.972;2023-06-26T12:08:55;6.47;;;1.90;;
15635;SDS011;7917;50.818;6.972;2023-06-26T12:11:22;8.77;;;2.28;;
15635;SDS011;7917;50.818;6.972;2023-06-26T12:13:50;5.43;;;2.10;;
15635;SDS011;7917;50.818;6.972;2023-06-26T12:16:18;11.52;;;2.42;;
15635;SDS011;7917;50.818;6.972;2023-06-26T12:18:45;9.73;;;2.92;;
15635;SDS011;7917;50.818;6.972;2023-06-26T12:24:10;7.35;;;2.63;;
15635;SDS011;7917;50.818;6.972;2023-06-26T12:26:41;7.97;;;2.60;;
15635;SDS011;7917;50.818;6.972;2023-06-26T12:29:10;6.82;;;2.45;;
15635;SDS011;7917;50.818;6.972;2023-06-26T12:31:39;5.53;;;1.88;;
15635;SDS011;7917;50.818;6.972;2023-06-26T12:34:08;6.07;;;2.08;;
15635;SDS011;7917;50.818;6.972;2023-06-26T12:36:40;6.65;;;2.55;;
15635;SDS011;7917;50.818;6.972;2023-06-26T12:39:09;4.35;;;2.00;;
15635;SDS011;7917;50.818;6.972;2023-06-26T12:41:43;4.90;;;2.10;;
15635;SDS011;7917;50.818;6.972;2023-06-26T12:44:16;5.93;;;2.50;;
15635;SDS011;7917;50.818;6.972;2023-06-26T12:46:47;4.93;;;2.30;;
15635;SDS011;7917;50.818;6.972;2023-06-26T12:49:14;5.57;;;2.30;;
15635;SDS011;7917;50.818;6.972;2023-06-26T12:51:43;3.45;;;1.88;;
15635;SDS011;7917;50.818;6.972;2023-06-26T12:54:10;9.20;;;2.38;;
15635;SDS011;7917;50.818;6.972;2023-06-26T12:56:37;4.40;;;2.13;;
15635;SDS011;7917;50.818;6.972;2023-06-26T12:59:04;12.13;;;2.42;;
15635;SDS011;7917;50.818;6.972;2023-06-26T13:01:30;8.23;;;2.30;;
15635;SDS011;7917;50.818;6.972;2023-06-26T13:03:59;10.05;;;2.35;;
15635;SDS011;7917;50.818;6.972;2023-06-26T13:06:25;8.10;;;2.15;;
15635;SDS011;7917;50.818;6.972;2023-06-26T13:08:53;6.70;;;2.20;;
15635;SDS011;7917;50.818;6.972;2023-06-26T13:11:21;6.47;;;2.08;;
15635;SDS011;7917;50.818;6.972;2023-06-26T13:13:48;3.63;;;1.70;;
15635;SDS011;7917;50.818;6.972;2023-06-26T13:16:14;4.68;;;1.52;;
15635;SDS011;7917;50.818;6.972;2023-06-26T13:18:43;4.82;;;1.63;;
15635;SDS011;7917;50.818;6.972;2023-06-26T13:21:11;7.65;;;2.22;;
15635;SDS011;7917;50.818;6.972;2023-06-26T13:23:38;10.18;;;1.75;;
15635;SDS011;7917;50.818;6.972;2023-06-26T13:26:05;6.80;;;1.48;;
15635;SDS011;7917;50.818;6.972;2023-06-26T13:28:32;5.68;;;1.42;;
15635;SDS011;7917;50.818;6.972;2023-06-26T13:30:59;7.45;;;1.95;;
15635;SDS011;7917;50.818;6.972;2023-06-26T13:33:26;8.82;;;1.80;;
15635;SDS011;7917;50.818;6.972;2023-06-26T13:35:53;5.53;;;1.77;;
15635;SDS011;7917;50.818;6.972;2023-06-26T13:38:20;4.55;;;2.00;;
15635;SDS011;7917;50.818;6.972;2023-06-26T13:40:50;2.88;;;1.33;;
15635;SDS011;7917;50.818;6.972;2023-06-26T13:43:18;3.33;;;1.60;;
15635;SDS011;7917;50.818;6.972;2023-06-26T13:45:46;7.38;;;1.88;;
15635;SDS011;7917;50.818;6.972;2023-06-26T13:48:12;4.07;;;1.40;;
15635;SDS011;7917;50.818;6.972;2023-06-26T13:50:39;10.02;;;1.63;;
15635;SDS011;7917;50.818;6.972;2023-06-26T13:53:07;3.80;;;1.50;;
15635;SDS011;7917;50.818;6.972;2023-06-26T13:55:34;6.28;;;1.30;;
15635;SDS011;7917;50.818;6.972;2023-06-26T13:58:03;6.50;;;1.48;;
15635;SDS011;7917;50.818;6.972;2023-06-26T14:00:31;12.32;;;1.98;;
15635;SDS011;7917;50.818;6.972;2023-06-26T14:02:58;5.75;;;1.50;;
15635;SDS011;7917;50.818;6.972;2023-06-26T14:05:25;5.15;;;1.58;;
15635;SDS011;7917;50.818;6.972;2023-06-26T14:07:53;9.27;;;1.65;;
15635;SDS011;7917;50.818;6.972;2023-06-26T14:10:20;7.65;;;1.45;;
15635;SDS011;7917;50.818;6.972;2023-06-26T14:12:47;5.45;;;1.75;;
15635;SDS011;7917;50.818;6.972;2023-06-26T14:15:13;10.18;;;1.73;;
15635;SDS011;7917;50.818;6.972;2023-06-26T14:17:41;5.80;;;1.48;;
15635;SDS011;7917;50.818;6.972;2023-06-26T14:20:08;11.10;;;1.52;;
15635;SDS011;7917;50.818;6.972;2023-06-26T14:22:38;4.70;;;1.65;;
15635;SDS011;7917;50.818;6.972;2023-06-26T14:25:05;5.15;;;1.38;;
15635;SDS011;7917;50.818;6.972;2023-06-26T14:27:34;6.82;;;1.60;;
15635;SDS011;7917;50.818;6.972;2023-06-26T14:30:01;4.97;;;1.63;;
15635;SDS011;7917;50.818;6.972;2023-06-26T14:32:29;6.47;;;1.73;;
15635;SDS011;7917;50.818;6.972;2023-06-26T14:34:56;5.03;;;1.40;;
15635;SDS011;7917;50.818;6.972;2023-06-26T14:37:24;7.53;;;1.48;;
15635;SDS011;7917;50.818;6.972;2023-06-26T14:39:52;6.25;;;1.50;;
15635;SDS011;7917;50.818;6.972;2023-06-26T14:42:22;7.50;;;1.80;;
15635;SDS011;7917;50.818;6.972;2023-06-26T14:44:49;5.65;;;1.95;;
15635;SDS011;7917;50.818;6.972;2023-06-26T14:47:15;3.70;;;1.63;;
15635;SDS011;7917;50.818;6.972;2023-06-26T14:49:42;8.00;;;1.73;;
15635;SDS011;7917;50.818;6.972;2023-06-26T14:52:10;2.20;;;1.48;;
15635;SDS011;7917;50.818;6.972;2023-06-26T14:54:37;6.70;;;1.63;;
15635;SDS011;7917;50.818;6.972;2023-06-26T14:57:05;4.10;;;1.80;;
15635;SDS011;7917;50.818;6.972;2023-06-26T14:59:32;4.53;;;1.63;;
15635;SDS011;7917;50.818;6.972;2023-06-26T15:01:59;6.20;;;1.85;;
15635;SDS011;7917;50.818;6.972;2023-06-26T15:04:26;5.78;;;1.90;;
15635;SDS011;7917;50.818;6.972;2023-06-26T15:06:56;6.03;;;1.63;;
15635;SDS011;7917;50.818;6.972;2023-06-26T15:09:24;5.95;;;1.85;;
15635;SDS011;7917;50.818;6.972;2023-06-26T15:11:50;9.73;;;2.15;;
15635;SDS011;7917;50.818;6.972;2023-06-26T15:14:18;6.70;;;1.92;;
15635;SDS011;7917;50.818;6.972;2023-06-26T15:16:45;9.20;;;1.80;;
15635;SDS011;7917;50.818;6.972;2023-06-26T15:19:11;8.77;;;1.98;;
15635;SDS011;7917;50.818;6.972;2023-06-26T15:21:39;4.40;;;1.55;;